createdAt,value
2019-05-26T00:04:25.785Z,3.40
2019-05-26T00:09:28.482Z,3.40
2019-05-26T00:14:31.183Z,4.87
2019-05-26T00:19:33.901Z,5.87
2019-05-26T00:24:36.609Z,5.90
2019-05-26T00:29:39.303Z,3.40
2019-05-26T00:34:42.023Z,6.33
2019-05-26T00:39:44.770Z,6.73
2019-05-26T00:44:47.452Z,7.03
2019-05-26T00:49:50.171Z,9.70
2019-05-26T00:54:52.873Z,6.07
2019-05-26T00:59:55.607Z,6.13
2019-05-26T01:04:58.540Z,12.10
2019-05-26T01:10:01.250Z,5.03
2019-05-26T01:15:04.682Z,6.43
2019-05-26T01:20:08.325Z,7.30
2019-05-26T01:25:11.327Z,4.30
2019-05-26T01:30:15.528Z,7.13
2019-05-26T01:35:18.227Z,4.47
2019-05-26T01:40:28.103Z,4.90
2019-05-26T01:45:30.791Z,4.63
2019-05-26T01:50:33.538Z,5.43
2019-05-26T01:55:36.257Z,6.03
2019-05-26T02:00:38.979Z,7.93
2019-05-26T02:05:41.703Z,13.10
2019-05-26T02:10:44.398Z,4.67
2019-05-26T02:15:47.094Z,4.90
2019-05-26T02:20:49.771Z,7.03
2019-05-26T02:25:52.477Z,9.40
2019-05-26T02:30:55.178Z,8.17
2019-05-26T02:35:57.882Z,5.57
2019-05-26T02:41:00.583Z,8.03
2019-05-26T02:46:03.389Z,4.80
2019-05-26T02:51:06.078Z,9.17
2019-05-26T02:56:08.775Z,6.43
2019-05-26T03:01:11.563Z,6.73
2019-05-26T03:06:16.173Z,6.00
2019-05-26T03:11:20.029Z,6.97
2019-05-26T03:16:22.761Z,5.80
2019-05-26T03:21:27.095Z,7.70
2019-05-26T03:26:30.151Z,9.30
2019-05-26T03:31:33.191Z,6.67
2019-05-26T03:36:36.235Z,6.73
2019-05-26T03:41:39.221Z,6.10
2019-05-26T03:46:42.163Z,6.03
2019-05-26T03:51:45.210Z,7.97
2019-05-26T03:56:48.240Z,9.00
2019-05-26T04:01:51.239Z,11.63
2019-05-26T04:06:54.267Z,7.73
2019-05-26T04:11:57.236Z,8.87
2019-05-26T04:16:59.917Z,7.43
2019-05-26T04:22:02.684Z,6.23
2019-05-26T04:27:05.388Z,8.30
2019-05-26T04:32:08.119Z,14.60
2019-05-26T04:37:10.937Z,13.23
2019-05-26T04:42:14.655Z,9.33
2019-05-26T04:47:17.413Z,9.47
2019-05-26T04:52:20.235Z,9.50
2019-05-26T04:57:23.095Z,6.63
2019-05-26T05:02:25.803Z,9.47
2019-05-26T05:07:28.924Z,9.63
2019-05-26T05:12:31.831Z,9.43
2019-05-26T05:17:34.552Z,6.70
2019-05-26T05:22:37.336Z,13.20
2019-05-26T05:27:40.137Z,8.37
2019-05-26T05:32:42.985Z,9.43
2019-05-26T05:37:45.727Z,11.40
2019-05-26T05:42:48.441Z,12.97
2019-05-26T05:47:51.146Z,38.30
2019-05-26T05:52:53.841Z,11.40
2019-05-26T05:57:56.560Z,11.37
2019-05-26T06:02:59.626Z,10.60
2019-05-26T06:08:02.369Z,12.27
2019-05-26T06:13:05.079Z,8.80
2019-05-26T06:18:07.813Z,11.90
2019-05-26T06:23:10.525Z,19.37
2019-05-26T06:28:13.244Z,13.93
2019-05-26T06:33:15.948Z,13.07
2019-05-26T06:38:19.491Z,16.83
2019-05-26T06:43:22.193Z,19.33
2019-05-26T06:48:26.914Z,17.60
2019-05-26T06:53:29.503Z,19.77
2019-05-26T06:58:32.296Z,15.97
2019-05-26T07:03:35.051Z,17.40
2019-05-26T07:08:37.770Z,15.83
2019-05-26T07:13:40.535Z,14.13
2019-05-26T07:18:43.338Z,18.80
2019-05-26T07:23:46.035Z,17.17
2019-05-26T07:28:48.808Z,14.17
2019-05-26T07:33:51.530Z,13.20
2019-05-26T07:38:54.236Z,16.20
2019-05-26T07:43:58.229Z,17.73
2019-05-26T07:49:01.009Z,19.57
2019-05-26T07:54:04.283Z,16.13
2019-05-26T07:59:07.048Z,17.40
2019-05-26T08:04:11.587Z,15.27
2019-05-26T08:09:15.541Z,18.70
2019-05-26T08:14:20.842Z,20.10
2019-05-26T08:19:24.127Z,18.17
2019-05-26T08:24:27.824Z,14.97
2019-05-26T08:29:31.358Z,23.53
2019-05-26T08:34:35.471Z,19.57
2019-05-26T08:39:38.908Z,17.30
2019-05-26T08:44:41.639Z,18.10
2019-05-26T08:49:45.025Z,17.80
2019-05-26T08:54:48.396Z,23.30
2019-05-26T08:59:51.532Z,19.03
2019-05-26T09:04:55.191Z,15.17
2019-05-26T09:09:58.564Z,18.63
2019-05-26T09:15:01.419Z,17.80
2019-05-26T09:20:05.947Z,16.70
2019-05-26T09:25:09.012Z,15.60
2019-05-26T09:30:11.929Z,16.27
2019-05-26T09:35:14.813Z,16.50
2019-05-26T09:40:18.511Z,15.50
2019-05-26T09:45:21.213Z,17.70
2019-05-26T09:50:26.046Z,13.27
2019-05-26T09:55:28.753Z,19.10
2019-05-26T10:00:31.659Z,19.57
2019-05-26T10:05:34.377Z,12.60
2019-05-26T10:10:37.071Z,13.00
2019-05-26T10:15:39.781Z,13.97
2019-05-26T10:20:42.579Z,15.77
2019-05-26T10:25:45.298Z,16.20
2019-05-26T10:30:48.049Z,14.60
2019-05-26T10:35:50.847Z,17.83
2019-05-26T10:40:53.571Z,12.23
2019-05-26T10:45:56.289Z,12.07
2019-05-26T10:50:59.097Z,10.17
2019-05-26T10:56:01.803Z,12.00
2019-05-26T11:01:04.526Z,8.17
2019-05-26T11:06:07.237Z,8.10
2019-05-26T11:11:09.960Z,14.27
2019-05-26T11:16:12.687Z,9.87
2019-05-26T11:21:15.385Z,20.20
2019-05-26T11:26:18.078Z,9.93
2019-05-26T11:31:20.777Z,7.93
2019-05-26T11:36:23.479Z,7.40
2019-05-26T11:41:26.330Z,9.03
2019-05-26T11:46:29.195Z,9.53
2019-05-26T11:51:31.894Z,8.47
2019-05-26T11:56:34.577Z,9.50
2019-05-26T12:01:37.266Z,12.43
2019-05-26T12:06:40.212Z,12.40
2019-05-26T12:11:43.183Z,12.00
2019-05-26T12:16:45.901Z,9.07
2019-05-26T12:21:48.623Z,8.90
2019-05-26T12:26:51.330Z,11.10
2019-05-26T12:31:54.031Z,4.77
2019-05-26T12:36:56.755Z,4.53
2019-05-26T12:41:59.552Z,5.13
2019-05-26T12:47:02.377Z,6.90
2019-05-26T12:52:05.219Z,5.20
2019-05-26T12:57:07.920Z,10.93
2019-05-26T13:02:10.649Z,4.43
2019-05-26T13:07:13.358Z,3.93
2019-05-26T13:12:16.114Z,3.97
2019-05-26T13:17:18.833Z,10.00
2019-05-26T13:22:21.557Z,3.93
2019-05-26T13:27:24.295Z,5.03
2019-05-26T13:32:27.088Z,7.50
2019-05-26T13:37:33.537Z,4.10
2019-05-26T13:42:36.263Z,5.23
2019-05-26T13:47:38.962Z,8.13
2019-05-26T13:52:41.662Z,4.30
2019-05-26T13:57:44.415Z,5.13
2019-05-26T14:02:47.145Z,5.20
2019-05-26T14:07:49.883Z,4.97
2019-05-26T14:12:52.580Z,4.93
2019-05-26T14:17:56.879Z,3.97
2019-05-26T14:22:59.651Z,5.60
2019-05-26T14:28:02.395Z,7.40
2019-05-26T14:33:05.351Z,5.03
2019-05-26T14:38:08.037Z,6.07
2019-05-26T14:43:11.024Z,4.53
2019-05-26T14:48:13.768Z,4.90
2019-05-26T14:53:16.468Z,7.27
2019-05-26T14:58:19.395Z,6.63
2019-05-26T15:03:22.349Z,7.53
2019-05-26T15:08:25.078Z,4.17
2019-05-26T15:13:28.097Z,3.60
2019-05-26T15:18:30.948Z,4.80
2019-05-26T15:23:33.883Z,4.00
2019-05-26T15:28:36.753Z,5.73
2019-05-26T15:33:39.511Z,4.70
2019-05-26T15:38:43.454Z,4.17
2019-05-26T15:43:46.415Z,6.20
2019-05-26T15:48:49.163Z,8.93
2019-05-26T15:53:51.888Z,5.00
2019-05-26T15:58:54.630Z,5.10
2019-05-26T16:03:57.493Z,5.97
2019-05-26T16:09:00.447Z,7.93
2019-05-26T16:14:03.288Z,5.87
2019-05-26T16:19:06.139Z,5.20
2019-05-26T16:24:08.892Z,4.50
2019-05-26T16:29:11.634Z,10.90
2019-05-26T16:34:14.360Z,6.33
2019-05-26T16:39:17.101Z,5.87
2019-05-26T16:44:19.823Z,7.20
2019-05-26T16:49:22.550Z,7.70
2019-05-26T16:54:25.303Z,5.53
2019-05-26T16:59:28.034Z,5.90
2019-05-26T17:04:30.841Z,10.03
2019-05-26T17:09:34.704Z,9.33
2019-05-26T17:14:37.456Z,5.63
2019-05-26T17:19:40.285Z,8.13
2019-05-26T17:24:43.117Z,6.10
2019-05-26T17:29:45.883Z,6.63
2019-05-26T17:34:48.620Z,9.53
2019-05-26T17:39:51.396Z,6.17
2019-05-26T17:44:54.303Z,8.93
2019-05-26T17:49:57.365Z,8.87
2019-05-26T17:55:00.369Z,8.07
2019-05-26T18:00:04.812Z,5.10
2019-05-26T18:05:08.348Z,6.70
2019-05-26T18:10:12.592Z,6.97
2019-05-26T18:15:16.424Z,5.97
2019-05-26T18:20:20.454Z,9.67
2019-05-26T18:25:23.289Z,7.27
2019-05-26T18:30:26.177Z,4.57
2019-05-26T18:35:30.033Z,6.20
2019-05-26T18:40:33.394Z,6.20
2019-05-26T18:45:37.221Z,8.67
2019-05-26T18:50:41.385Z,6.90
2019-05-26T18:55:44.666Z,6.60
2019-05-26T19:00:47.656Z,11.50
2019-05-26T19:05:50.951Z,5.47
2019-05-26T19:10:54.118Z,5.13
2019-05-26T19:15:57.030Z,10.03
2019-05-26T19:21:00.317Z,7.37
2019-05-26T19:26:03.569Z,5.83
2019-05-26T19:31:06.461Z,6.37
2019-05-26T19:36:09.989Z,6.53
2019-05-26T19:41:13.596Z,4.73
2019-05-26T19:46:17.862Z,7.53
2019-05-26T19:51:21.517Z,9.10
2019-05-26T19:56:25.111Z,6.57
2019-05-26T20:01:30.178Z,7.60
2019-05-26T20:06:33.970Z,5.93
2019-05-26T20:11:37.213Z,7.03
2019-05-26T20:16:40.408Z,7.27
2019-05-26T20:21:43.561Z,5.87
2019-05-26T20:26:47.313Z,10.43
2019-05-26T20:31:50.291Z,4.80
2019-05-26T20:36:53.082Z,13.23
2019-05-26T20:41:55.913Z,5.67
2019-05-26T20:46:58.811Z,5.17
2019-05-26T20:52:01.575Z,7.50
2019-05-26T20:57:04.318Z,6.87
2019-05-26T21:02:07.176Z,8.27
2019-05-26T21:07:09.890Z,11.03
2019-05-26T21:12:12.619Z,6.13
2019-05-26T21:17:15.405Z,6.33
2019-05-26T21:22:18.162Z,5.90
2019-05-26T21:27:20.990Z,6.80
2019-05-26T21:32:23.746Z,5.63
2019-05-26T21:37:26.501Z,8.47
2019-05-26T21:42:29.256Z,7.40
2019-05-26T21:47:32.098Z,9.13
2019-05-26T21:52:34.864Z,8.37
2019-05-26T21:57:37.597Z,8.00
2019-05-26T22:02:40.464Z,7.20
2019-05-26T22:07:43.195Z,9.83
2019-05-26T22:12:45.923Z,5.80
2019-05-26T22:17:48.675Z,5.10
2019-05-26T22:22:51.701Z,13.13
2019-05-26T22:27:54.509Z,5.30
2019-05-26T22:32:57.413Z,6.80
2019-05-26T22:38:00.226Z,5.93
2019-05-26T22:43:02.972Z,7.90
2019-05-26T22:48:05.950Z,7.90
2019-05-26T22:53:08.749Z,8.00
2019-05-26T22:58:11.528Z,7.80
2019-05-26T23:03:14.385Z,8.43
2019-05-26T23:08:17.243Z,6.33
2019-05-26T23:13:19.992Z,6.13
2019-05-26T23:18:22.770Z,10.07
2019-05-26T23:23:25.570Z,5.17
2019-05-26T23:28:28.363Z,5.73
2019-05-26T23:33:31.371Z,11.60
2019-05-26T23:38:34.181Z,17.57
2019-05-26T23:43:37.645Z,10.33
2019-05-26T23:48:40.463Z,4.80
2019-05-26T23:53:43.213Z,5.23
2019-05-26T23:58:45.979Z,5.50
